createdAt,value
2022-09-12T00:04:53.663Z,40.59
2022-09-12T00:09:55.514Z,40.64
2022-09-12T00:14:57.238Z,40.63
2022-09-12T00:19:59.602Z,40.53
2022-09-12T00:25:01.441Z,40.72
2022-09-12T00:30:04.041Z,40.63
2022-09-12T00:35:06.445Z,40.62
2022-09-12T00:40:08.501Z,40.45
2022-09-12T00:45:23.453Z,40.68
2022-09-12T00:50:26.174Z,40.54
2022-09-12T00:55:40.300Z,40.57
2022-09-12T01:00:42.108Z,40.50
2022-09-12T01:05:59.917Z,40.46
2022-09-12T01:11:02.081Z,40.28
2022-09-12T01:16:06.526Z,40.50
2022-09-12T01:21:17.324Z,40.47
2022-09-12T01:26:21.952Z,40.36
2022-09-12T01:31:26.820Z,40.31
2022-09-12T01:36:41.450Z,40.22
2022-09-12T01:41:54.754Z,40.29
2022-09-12T01:47:21.823Z,40.29
2022-09-12T01:52:29.877Z,40.24
2022-09-12T01:57:44.228Z,40.29
2022-09-12T02:03:03.676Z,40.37
2022-09-12T02:08:19.727Z,40.05
2022-09-12T02:13:43.513Z,40.17
2022-09-12T02:18:50.535Z,40.20
2022-09-12T02:23:58.939Z,40.27
2022-09-12T02:29:00.748Z,40.00
2022-09-12T02:34:27.610Z,40.05
2022-09-12T02:39:29.497Z,40.21
2022-09-12T02:44:33.837Z,40.17
2022-09-12T02:49:35.967Z,39.98
2022-09-12T02:54:38.416Z,39.94
2022-09-12T02:59:40.290Z,40.01
2022-09-12T03:04:54.400Z,39.87
2022-09-12T03:10:03.369Z,39.82
2022-09-12T03:15:27.123Z,40.04
2022-09-12T03:20:50.939Z,40.14
2022-09-12T03:26:09.765Z,40.31
2022-09-12T03:31:14.673Z,40.03
2022-09-12T03:36:23.317Z,40.09
2022-09-12T03:41:25.258Z,40.41
2022-09-12T03:46:27.021Z,40.52
2022-09-12T03:51:29.133Z,40.39
2022-09-12T03:56:31.098Z,40.27
2022-09-12T04:01:33.574Z,40.29
2022-09-12T04:06:35.709Z,40.12
2022-09-12T04:11:37.548Z,39.97
2022-09-12T04:16:39.643Z,39.90
2022-09-12T04:21:41.570Z,39.48
2022-09-12T04:26:43.769Z,39.42
2022-09-12T04:31:45.374Z,39.58
2022-09-12T04:36:46.995Z,39.73
2022-09-12T04:41:48.772Z,39.62
2022-09-12T04:46:50.572Z,39.82
2022-09-12T04:51:53.447Z,39.55
2022-09-12T04:56:55.497Z,39.46
2022-09-12T05:01:57.256Z,39.77
2022-09-12T05:06:59.156Z,39.50
2022-09-12T05:12:05.534Z,39.59
2022-09-12T05:17:07.719Z,39.71
2022-09-12T05:22:09.952Z,39.75
2022-09-12T05:27:11.806Z,39.47
2022-09-12T05:32:13.629Z,39.48
2022-09-12T05:37:15.398Z,39.50
2022-09-12T05:42:17.174Z,39.84
2022-09-12T05:47:19.231Z,39.54
2022-09-12T05:52:21.211Z,39.85
2022-09-12T05:57:23.132Z,39.79
2022-09-12T06:02:24.985Z,40.38
2022-09-12T06:07:26.864Z,40.35
2022-09-12T06:12:30.347Z,40.78
2022-09-12T06:17:32.650Z,40.76
2022-09-12T06:22:34.534Z,40.52
2022-09-12T06:27:36.430Z,40.97
2022-09-12T06:32:38.303Z,40.74
2022-09-12T06:37:41.062Z,41.15
2022-09-12T06:42:42.880Z,42.41
2022-09-12T06:47:44.646Z,42.89
2022-09-12T06:52:49.421Z,42.04
2022-09-12T06:57:52.551Z,41.99
2022-09-12T07:02:56.740Z,41.75
2022-09-12T07:07:58.518Z,42.06
2022-09-12T07:13:00.626Z,41.87
2022-09-12T07:18:03.047Z,41.83
2022-09-12T07:23:04.894Z,41.61
2022-09-12T07:28:06.748Z,41.87
2022-09-12T07:33:08.855Z,41.65
2022-09-12T07:38:10.592Z,41.04
2022-09-12T07:43:12.661Z,41.01
2022-09-12T07:48:14.407Z,41.21
2022-09-12T07:53:16.228Z,41.73
2022-09-12T07:58:18.059Z,41.59
2022-09-12T08:03:19.874Z,42.03
2022-09-12T08:08:21.834Z,42.43
2022-09-12T08:13:23.818Z,43.11
2022-09-12T08:18:29.413Z,42.66
2022-09-12T08:23:31.984Z,42.67
2022-09-12T08:28:35.634Z,43.66
2022-09-12T08:33:38.206Z,43.62
2022-09-12T08:38:42.754Z,43.72
2022-09-12T08:44:09.673Z,43.85
2022-09-12T08:49:15.600Z,43.16
2022-09-12T08:54:24.957Z,43.56
2022-09-12T08:59:27.345Z,43.75
2022-09-12T09:04:35.006Z,43.08
2022-09-12T09:10:01.393Z,43.25
2022-09-12T09:15:34.569Z,43.41
2022-09-12T09:20:44.340Z,44.05
2022-09-12T09:25:52.793Z,43.45
2022-09-12T09:30:55.528Z,43.08
2022-09-12T09:36:35.069Z,42.76
2022-09-12T09:41:49.533Z,43.03
2022-09-12T09:46:55.950Z,42.75
2022-09-12T09:52:01.207Z,42.76
2022-09-12T09:57:04.070Z,42.56
2022-09-12T10:02:14.910Z,42.29
2022-09-12T10:07:22.055Z,42.01
2022-09-12T10:12:29.080Z,41.88
2022-09-12T10:17:39.403Z,41.99
2022-09-12T10:22:41.335Z,41.74
2022-09-12T10:27:43.254Z,41.54
2022-09-12T10:32:51.677Z,41.49
2022-09-12T10:38:07.621Z,41.51
2022-09-12T10:43:33.681Z,41.64
2022-09-12T10:48:36.452Z,41.55
2022-09-12T10:53:44.408Z,41.49
2022-09-12T10:59:07.684Z,41.72
2022-09-12T11:04:31.095Z,41.54
2022-09-12T11:09:45.856Z,41.63
2022-09-12T11:15:12.298Z,41.41
2022-09-12T11:20:28.315Z,41.74
2022-09-12T11:25:41.855Z,41.90
2022-09-12T11:31:00.204Z,41.71
2022-09-12T11:36:05.313Z,41.77
2022-09-12T11:41:31.752Z,41.80
2022-09-12T11:46:39.465Z,41.71
2022-09-12T11:52:14.865Z,41.80
2022-09-12T11:57:25.470Z,42.20
2022-09-12T12:02:29.939Z,41.37
2022-09-12T12:07:45.449Z,41.86
2022-09-12T12:12:48.436Z,40.71
2022-09-12T12:18:18.139Z,41.43
2022-09-12T12:23:23.641Z,41.33
2022-09-12T12:28:50.584Z,41.67
2022-09-12T12:33:53.829Z,41.28
2022-09-12T12:38:55.908Z,40.88
2022-09-12T12:43:58.033Z,40.74
2022-09-12T12:49:20.067Z,40.47
2022-09-12T12:54:41.618Z,40.42
2022-09-12T12:59:54.658Z,40.45
2022-09-12T13:04:58.254Z,40.48
2022-09-12T13:10:01.775Z,40.23
2022-09-12T13:15:47.792Z,40.42
2022-09-12T13:21:11.966Z,39.87
2022-09-12T13:26:23.240Z,40.29
2022-09-12T13:31:28.922Z,39.93
2022-09-12T13:36:51.062Z,40.08
2022-09-12T13:42:30.757Z,38.52
2022-09-12T13:47:38.798Z,39.87
2022-09-12T13:52:40.732Z,39.30
2022-09-12T13:57:42.666Z,39.41
2022-09-12T14:02:44.795Z,39.67
2022-09-12T14:07:56.369Z,39.61
2022-09-12T14:13:00.491Z,39.60
2022-09-12T14:18:04.307Z,39.25
2022-09-12T14:23:31.121Z,38.91
2022-09-12T14:28:34.495Z,38.24
2022-09-12T14:33:54.051Z,40.29
2022-09-12T14:38:59.573Z,40.17
2022-09-12T14:44:05.538Z,39.61
2022-09-12T14:49:33.901Z,40.86
2022-09-12T14:54:37.531Z,42.73
2022-09-12T14:59:40.918Z,44.08
2022-09-12T15:05:08.801Z,44.94
2022-09-12T15:10:32.566Z,42.83
2022-09-12T15:15:34.245Z,44.13
2022-09-12T15:20:41.242Z,42.98
2022-09-12T15:25:43.120Z,41.95
2022-09-12T15:30:45.529Z,40.69
2022-09-12T15:35:47.659Z,39.30
2022-09-12T15:40:54.157Z,40.64
2022-09-12T15:45:55.879Z,39.80
2022-09-12T15:51:01.685Z,39.73
2022-09-12T15:56:03.650Z,38.59
2022-09-12T16:01:05.943Z,38.51
2022-09-12T16:06:09.672Z,39.10
2022-09-12T16:11:22.151Z,39.27
2022-09-12T16:16:25.079Z,39.32
2022-09-12T16:21:28.212Z,39.65
2022-09-12T16:26:29.848Z,39.42
2022-09-12T16:31:31.925Z,39.47
2022-09-12T16:36:33.842Z,39.51
2022-09-12T16:41:35.618Z,40.02
2022-09-12T16:46:37.440Z,39.91
2022-09-12T16:51:39.310Z,40.09
2022-09-12T16:56:41.897Z,39.64
2022-09-12T17:01:45.313Z,39.45
2022-09-12T17:06:47.061Z,38.59
2022-09-12T17:11:49.863Z,39.71
2022-09-12T17:16:52.373Z,39.88
2022-09-12T17:21:55.012Z,39.85
2022-09-12T17:26:57.365Z,40.74
2022-09-12T17:31:59.289Z,40.44
2022-09-12T17:37:01.073Z,41.65
2022-09-12T17:42:02.859Z,43.08
2022-09-12T17:47:05.694Z,43.19
2022-09-12T17:52:07.436Z,43.63
2022-09-12T17:57:09.304Z,43.52
2022-09-12T18:02:14.647Z,43.47
2022-09-12T18:07:20.520Z,43.71
2022-09-12T18:12:22.513Z,43.64
2022-09-12T18:17:24.727Z,43.09
2022-09-12T18:22:26.682Z,43.02
2022-09-12T18:27:28.754Z,42.59
2022-09-12T18:32:30.560Z,42.93
2022-09-12T18:37:32.519Z,42.83
2022-09-12T18:42:34.389Z,42.95
2022-09-12T18:47:36.190Z,42.51
2022-09-12T18:52:38.006Z,42.45
2022-09-12T18:57:41.702Z,42.49
2022-09-12T19:02:43.705Z,42.41
2022-09-12T19:07:45.476Z,42.47
2022-09-12T19:12:47.567Z,42.72
2022-09-12T19:17:49.879Z,42.38
2022-09-12T19:22:51.766Z,41.98
2022-09-12T19:27:53.619Z,42.28
2022-09-12T19:32:55.487Z,42.34
2022-09-12T19:37:57.379Z,42.30
2022-09-12T19:42:59.834Z,42.63
2022-09-12T19:48:02.173Z,42.43
2022-09-12T19:53:04.286Z,42.23
2022-09-12T19:58:06.371Z,42.29
2022-09-12T20:03:08.163Z,42.21
2022-09-12T20:08:10.279Z,42.15
2022-09-12T20:13:12.575Z,42.20
2022-09-12T20:18:14.532Z,42.41
2022-09-12T20:23:16.547Z,42.44
2022-09-12T20:28:18.392Z,42.23
2022-09-12T20:33:20.290Z,42.31
2022-09-12T20:38:22.171Z,42.14
2022-09-12T20:43:23.977Z,42.37
2022-09-12T20:48:26.418Z,42.19
2022-09-12T20:53:31.732Z,42.63
2022-09-12T20:58:39.365Z,42.26
2022-09-12T21:03:45.982Z,42.39
2022-09-12T21:08:49.218Z,42.18
2022-09-12T21:13:52.671Z,42.01
2022-09-12T21:18:57.378Z,42.33
2022-09-12T21:24:03.254Z,42.23
2022-09-12T21:29:05.190Z,42.21
2022-09-12T21:34:07.159Z,42.11
2022-09-12T21:39:09.049Z,42.34
2022-09-12T21:44:10.991Z,42.40
2022-09-12T21:49:12.827Z,42.17
2022-09-12T21:54:14.517Z,42.22
2022-09-12T21:59:16.403Z,42.27
2022-09-12T22:04:18.263Z,42.42
2022-09-12T22:09:20.247Z,42.29
2022-09-12T22:14:22.260Z,42.13
2022-09-12T22:19:24.580Z,42.21
2022-09-12T22:24:29.361Z,42.19
2022-09-12T22:29:31.362Z,41.96
2022-09-12T22:34:33.359Z,41.87
2022-09-12T22:39:35.214Z,42.28
2022-09-12T22:44:36.961Z,42.04
2022-09-12T22:49:38.728Z,41.85
2022-09-12T22:54:40.514Z,42.03
2022-09-12T22:59:42.370Z,41.98
2022-09-12T23:04:44.501Z,41.85
2022-09-12T23:09:46.557Z,42.06
2022-09-12T23:14:48.438Z,41.85
2022-09-12T23:19:50.453Z,42.08
2022-09-12T23:24:52.343Z,42.11
2022-09-12T23:29:54.543Z,42.08
2022-09-12T23:34:56.483Z,42.06
2022-09-12T23:39:58.436Z,41.82
2022-09-12T23:45:00.426Z,42.04
2022-09-12T23:50:02.388Z,42.02
2022-09-12T23:55:04.552Z,42.19
